< < Back
Terminal Aerodrome Forecast


Current Version              Previous Versions:   1  2  3  4  5  6  7  8  9  

Terminal Aerodrome Forecast

755
FTUS42 KJAX 300539
TAFSSI
TAF
KSSI 300539Z 3006/3106 VRB04KT P6SM SKC
     FM301400 22010KT P6SM FEW050
     FM301900 25010G20KT P6SM VCSH BKN050=

Latest METAR

104
SAUS70 KWBC 300900
MTRSSI
METAR KSSI 300853Z AUTO 22006KT 10SM CLR 12/06 A3025 RMK AO2 SLP241
T01170061 56019


USA.gov is the U.S. government's official web portal to all federal, state and local government web resources and services.